createdAt,value
2023-04-06T00:01:53.362Z,75.47
2023-04-06T00:04:21.306Z,74.88
2023-04-06T00:06:48.605Z,76.01
2023-04-06T00:09:15.942Z,76.62
2023-04-06T00:11:43.563Z,76.77
2023-04-06T00:14:11.037Z,76.69
2023-04-06T00:16:38.400Z,75.79
2023-04-06T00:19:06.235Z,75.21
2023-04-06T00:21:33.983Z,75.87
2023-04-06T00:24:01.333Z,74.96
2023-04-06T00:26:30.164Z,75.70
2023-04-06T00:28:59.898Z,76.15
2023-04-06T00:31:27.229Z,77.07
2023-04-06T00:33:54.984Z,77.05
2023-04-06T00:36:22.440Z,77.42
2023-04-06T00:38:49.859Z,76.31
2023-04-06T00:41:18.900Z,76.33
2023-04-06T00:43:46.174Z,75.21
2023-04-06T00:46:13.576Z,75.53
2023-04-06T00:48:42.115Z,77.56
2023-04-06T00:51:09.491Z,77.49
2023-04-06T00:53:36.930Z,76.37
2023-04-06T00:56:05.693Z,75.56
2023-04-06T00:58:34.521Z,77.04
2023-04-06T01:01:02.364Z,77.47
2023-04-06T01:03:30.119Z,77.11
2023-04-06T01:05:59.434Z,77.74
2023-04-06T01:08:28.229Z,76.29
2023-04-06T01:10:56.309Z,79.25
2023-04-06T01:13:23.856Z,78.79
2023-04-06T01:15:51.928Z,79.11
2023-04-06T01:18:27.413Z,78.39
2023-04-06T01:20:56.285Z,78.11
2023-04-06T01:23:26.039Z,77.22
2023-04-06T01:25:53.425Z,78.34
2023-04-06T01:28:20.755Z,77.65
2023-04-06T01:30:49.372Z,77.17
2023-04-06T01:33:16.975Z,78.54
2023-04-06T01:35:44.855Z,79.59
2023-04-06T01:38:13.512Z,77.55
2023-04-06T01:40:41.209Z,78.25
2023-04-06T01:43:08.585Z,79.20
2023-04-06T01:45:36.813Z,78.31
2023-04-06T01:48:04.872Z,80.17
2023-04-06T01:50:32.572Z,78.98
2023-04-06T01:53:00.332Z,78.61
2023-04-06T01:55:28.233Z,79.41
2023-04-06T01:57:56.459Z,79.68
2023-04-06T02:00:27.339Z,79.04
2023-04-06T02:02:56.015Z,78.35
2023-04-06T02:05:23.708Z,78.42
2023-04-06T02:07:52.674Z,79.68
2023-04-06T02:10:22.004Z,78.02
2023-04-06T02:12:49.807Z,78.93
2023-04-06T02:15:18.487Z,78.04
2023-04-06T02:17:46.166Z,78.03
2023-04-06T02:20:13.726Z,77.91
2023-04-06T02:22:41.517Z,79.11
2023-04-06T02:25:09.828Z,78.67
2023-04-06T02:27:37.461Z,79.51
2023-04-06T02:30:06.551Z,80.91
2023-04-06T02:32:34.057Z,79.09
2023-04-06T02:35:02.030Z,78.97
2023-04-06T02:37:30.589Z,80.76
2023-04-06T02:39:59.618Z,80.56
2023-04-06T02:42:27.897Z,80.30
2023-04-06T02:44:55.806Z,80.93
2023-04-06T02:47:24.398Z,79.56
2023-04-06T02:49:52.092Z,80.22
2023-04-06T02:52:20.362Z,80.70
2023-04-06T02:54:47.954Z,80.97
2023-04-06T02:57:20.074Z,80.34
2023-04-06T02:59:47.990Z,81.67
2023-04-06T03:02:15.811Z,81.56
2023-04-06T03:04:44.264Z,81.69
2023-04-06T03:07:15.155Z,81.33
2023-04-06T03:09:42.657Z,82.50
2023-04-06T03:12:10.434Z,81.30
2023-04-06T03:14:39.675Z,80.63
2023-04-06T03:17:07.107Z,81.21
2023-04-06T03:19:34.717Z,80.87
2023-04-06T03:22:02.775Z,81.07
2023-04-06T03:24:30.346Z,80.32
2023-04-06T03:26:57.832Z,80.08
2023-04-06T03:29:25.813Z,80.59
2023-04-06T03:31:53.516Z,81.58
2023-04-06T03:34:22.198Z,80.67
2023-04-06T03:36:59.831Z,80.60
2023-04-06T03:39:37.410Z,81.31
2023-04-06T03:42:05.525Z,81.34
2023-04-06T03:44:33.144Z,79.47
2023-04-06T03:47:00.699Z,79.17
2023-04-06T03:49:28.957Z,79.54
2023-04-06T03:51:57.786Z,80.87
2023-04-06T03:54:25.202Z,78.67
2023-04-06T03:56:52.923Z,80.03
2023-04-06T03:59:20.744Z,78.86
2023-04-06T04:01:48.214Z,79.34
2023-04-06T04:04:16.064Z,79.55
2023-04-06T04:06:43.464Z,79.57
2023-04-06T04:09:11.179Z,79.61
2023-04-06T04:11:39.088Z,79.69
2023-04-06T04:14:06.479Z,78.21
2023-04-06T04:16:33.954Z,77.50
2023-04-06T04:19:01.674Z,77.41
2023-04-06T04:21:32.599Z,76.45
2023-04-06T04:24:01.547Z,77.06
2023-04-06T04:26:29.396Z,77.92
2023-04-06T04:28:56.867Z,77.80
2023-04-06T04:31:24.568Z,78.87
2023-04-06T04:33:53.610Z,78.04
2023-04-06T04:36:25.598Z,77.65
2023-04-06T04:38:54.035Z,78.65
2023-04-06T04:41:21.839Z,78.18
2023-04-06T04:43:50.405Z,77.27
2023-04-06T04:46:21.288Z,77.85
2023-04-06T04:48:48.858Z,78.72
2023-04-06T04:51:16.802Z,77.97
2023-04-06T04:53:45.923Z,78.00
2023-04-06T04:56:15.247Z,77.57
2023-04-06T04:58:44.617Z,77.34
2023-04-06T05:01:12.865Z,76.13
2023-04-06T05:03:40.878Z,76.51
2023-04-06T05:06:09.686Z,77.67
2023-04-06T05:08:39.790Z,78.26
2023-04-06T05:11:07.576Z,78.17
2023-04-06T05:13:35.805Z,76.48
2023-04-06T05:16:06.931Z,75.62
2023-04-06T05:18:34.911Z,76.87
2023-04-06T05:21:02.785Z,74.86
2023-04-06T05:23:31.755Z,74.79
2023-04-06T05:26:01.824Z,75.43
2023-04-06T05:28:29.353Z,75.46
2023-04-06T05:30:58.130Z,75.14
2023-04-06T05:33:27.438Z,75.28
2023-04-06T05:35:55.648Z,74.14
2023-04-06T05:38:23.810Z,73.90
2023-04-06T05:40:52.236Z,74.39
2023-04-06T05:43:23.057Z,73.23
2023-04-06T05:45:52.987Z,72.53
2023-04-06T05:48:21.285Z,72.77
2023-04-06T05:50:51.540Z,73.22
2023-04-06T05:53:22.292Z,73.02
2023-04-06T05:55:51.042Z,72.27
2023-04-06T05:58:18.571Z,71.45
2023-04-06T06:00:47.220Z,71.51
2023-04-06T06:03:16.532Z,72.01
2023-04-06T06:05:46.831Z,71.75
2023-04-06T06:08:14.984Z,71.90
2023-04-06T06:10:42.490Z,70.45
2023-04-06T06:13:11.341Z,69.92
2023-04-06T06:15:39.321Z,71.81
2023-04-06T06:18:07.031Z,69.51
2023-04-06T06:20:34.550Z,68.59
2023-04-06T06:23:02.485Z,67.75
2023-04-06T06:25:32.104Z,69.25
2023-04-06T06:28:00.263Z,68.09
2023-04-06T06:30:29.871Z,68.84
2023-04-06T06:32:57.490Z,68.04
2023-04-06T06:35:25.337Z,65.29
2023-04-06T06:37:53.178Z,66.37
2023-04-06T06:40:25.123Z,67.54
2023-04-06T06:42:53.782Z,67.44
2023-04-06T06:45:21.854Z,68.08
2023-04-06T06:47:49.338Z,67.03
2023-04-06T06:50:17.163Z,67.33
2023-04-06T06:52:45.971Z,68.55
2023-04-06T06:55:13.425Z,67.30
2023-04-06T06:57:43.565Z,67.67
2023-04-06T07:00:13.539Z,66.91
2023-04-06T07:02:42.260Z,66.22
2023-04-06T07:05:19.917Z,67.14
2023-04-06T07:07:55.965Z,66.14
2023-04-06T07:10:23.854Z,66.72
2023-04-06T07:12:51.305Z,66.09
2023-04-06T07:15:19.055Z,65.72
2023-04-06T07:17:46.802Z,65.66
2023-04-06T07:20:14.850Z,66.04
2023-04-06T07:22:44.660Z,66.83
2023-04-06T07:25:11.977Z,65.65
2023-04-06T07:27:41.885Z,66.48
2023-04-06T07:30:10.533Z,67.57
2023-04-06T07:32:38.234Z,67.63
2023-04-06T07:35:06.221Z,65.37
2023-04-06T07:37:34.296Z,64.43
2023-04-06T07:40:01.784Z,64.76
2023-04-06T07:42:30.813Z,64.47
2023-04-06T07:44:58.706Z,64.45
2023-04-06T07:47:26.372Z,62.87
2023-04-06T07:49:57.171Z,64.35
2023-04-06T07:52:25.058Z,62.41
2023-04-06T07:54:52.417Z,64.06
2023-04-06T07:57:19.947Z,62.89
2023-04-06T07:59:47.648Z,61.89
2023-04-06T08:02:15.150Z,60.38
2023-04-06T08:04:44.633Z,61.87
2023-04-06T08:07:13.672Z,62.13
2023-04-06T08:09:41.105Z,61.16
2023-04-06T08:12:08.948Z,59.83
2023-04-06T08:14:36.522Z,57.70
2023-04-06T08:17:05.917Z,61.18
2023-04-06T08:19:34.300Z,59.19
2023-04-06T08:22:01.685Z,60.32
2023-04-06T08:24:29.124Z,58.67
2023-04-06T08:26:56.931Z,60.27
2023-04-06T08:29:24.406Z,60.11
2023-04-06T08:31:51.683Z,61.34
2023-04-06T08:34:19.502Z,60.58
2023-04-06T08:36:47.982Z,58.73
2023-04-06T08:39:15.554Z,56.85
2023-04-06T08:41:45.167Z,58.57
2023-04-06T08:44:13.162Z,60.76
2023-04-06T08:46:41.779Z,60.56
2023-04-06T08:49:09.676Z,58.96
2023-04-06T08:51:39.290Z,57.43
2023-04-06T08:54:07.044Z,59.25
2023-04-06T08:56:39.205Z,57.17
2023-04-06T08:59:07.755Z,58.46
2023-04-06T09:01:42.426Z,57.57
2023-04-06T09:04:12.793Z,56.70
2023-04-06T09:06:41.956Z,54.13
2023-04-06T09:09:09.733Z,54.98
2023-04-06T09:12:07.067Z,58.42
2023-04-06T09:14:39.164Z,58.56
2023-04-06T09:17:07.454Z,56.33
2023-04-06T09:19:35.158Z,58.30
2023-04-06T09:22:08.462Z,55.08
2023-04-06T09:24:50.887Z,55.13
2023-04-06T09:27:18.879Z,53.90
2023-04-06T09:29:46.598Z,54.25
2023-04-06T09:32:17.999Z,53.11
2023-04-06T09:34:50.795Z,54.49
2023-04-06T09:37:20.255Z,53.75
2023-04-06T09:39:47.903Z,53.09
2023-04-06T09:42:26.779Z,55.48
2023-04-06T09:44:54.360Z,56.94
2023-04-06T09:47:29.597Z,54.52
2023-04-06T09:50:00.386Z,55.70
2023-04-06T09:52:32.886Z,56.70
2023-04-06T09:55:06.244Z,54.98
2023-04-06T09:58:06.751Z,54.38
2023-04-06T10:00:44.836Z,54.67
2023-04-06T10:03:38.772Z,55.96
2023-04-06T10:06:12.466Z,56.96
2023-04-06T10:08:42.612Z,56.05
2023-04-06T10:11:13.728Z,56.71
2023-04-06T10:13:41.791Z,55.55
2023-04-06T10:16:09.525Z,55.47
2023-04-06T10:18:38.710Z,55.49
2023-04-06T10:21:22.012Z,57.51
2023-04-06T10:23:52.175Z,55.04
2023-04-06T10:26:23.663Z,55.36
2023-04-06T10:28:51.955Z,55.33
2023-04-06T10:31:27.676Z,53.95
2023-04-06T10:34:01.913Z,55.76
2023-04-06T10:36:33.669Z,55.73
2023-04-06T10:39:06.253Z,56.40
2023-04-06T10:41:43.240Z,53.44
2023-04-06T10:44:21.632Z,53.96
2023-04-06T10:47:02.903Z,54.19
2023-04-06T10:49:30.256Z,53.47
2023-04-06T10:51:58.439Z,53.83
2023-04-06T10:54:28.187Z,53.73
2023-04-06T10:56:57.263Z,52.93
2023-04-06T10:59:26.597Z,51.69
2023-04-06T11:01:56.196Z,53.32
2023-04-06T11:04:24.756Z,52.81
2023-04-06T11:06:52.710Z,50.93
2023-04-06T11:09:32.679Z,53.42
2023-04-06T11:12:00.484Z,51.36
2023-04-06T11:14:28.036Z,51.83
2023-04-06T11:16:55.448Z,52.89
2023-04-06T11:19:23.241Z,52.49
2023-04-06T11:21:50.874Z,52.12
2023-04-06T11:24:20.573Z,52.67
2023-04-06T11:26:52.232Z,52.81
2023-04-06T11:29:24.637Z,51.99
2023-04-06T11:31:53.402Z,51.88
2023-04-06T11:34:22.912Z,54.53
2023-04-06T11:36:58.524Z,54.09
2023-04-06T11:39:28.809Z,56.22
2023-04-06T11:42:08.508Z,55.62
2023-04-06T11:44:43.820Z,55.01
2023-04-06T11:47:12.092Z,55.86
2023-04-06T11:49:42.112Z,56.02
2023-04-06T11:52:24.342Z,54.01
2023-04-06T11:54:54.597Z,53.08
2023-04-06T11:57:26.688Z,54.51
2023-04-06T11:59:54.771Z,53.01
2023-04-06T12:02:22.327Z,52.51
2023-04-06T12:04:50.277Z,52.20
2023-04-06T12:07:17.819Z,54.25
2023-04-06T12:09:45.559Z,53.57
2023-04-06T12:12:13.320Z,54.55
2023-04-06T12:14:41.087Z,51.75
2023-04-06T12:17:08.628Z,54.56
2023-04-06T12:19:36.288Z,54.29
2023-04-06T12:22:03.680Z,55.22
2023-04-06T12:24:31.208Z,53.68
2023-04-06T12:27:08.680Z,53.96
2023-04-06T12:29:38.006Z,53.63
2023-04-06T12:32:06.672Z,53.89
2023-04-06T12:34:34.085Z,54.85
2023-04-06T12:37:01.689Z,51.69
2023-04-06T12:39:29.541Z,51.78
2023-04-06T12:41:58.396Z,54.50
2023-04-06T12:44:27.005Z,52.25
2023-04-06T12:46:55.221Z,50.93
2023-04-06T12:49:23.086Z,48.98
2023-04-06T12:51:51.368Z,50.29
2023-04-06T12:54:19.044Z,51.08
2023-04-06T12:56:46.694Z,52.21
2023-04-06T12:59:14.163Z,51.47
2023-04-06T13:01:41.886Z,51.46
2023-04-06T13:04:09.173Z,50.81
2023-04-06T13:06:36.567Z,50.91
2023-04-06T13:09:05.494Z,50.63
2023-04-06T13:11:33.129Z,51.72
2023-04-06T13:14:00.536Z,52.07
2023-04-06T13:16:28.666Z,49.94
2023-04-06T13:18:56.335Z,49.95
2023-04-06T13:21:23.663Z,50.70
2023-04-06T13:23:52.543Z,52.00
2023-04-06T13:26:19.880Z,51.79
2023-04-06T13:28:47.382Z,51.83
2023-04-06T13:31:15.026Z,50.96
2023-04-06T13:33:42.457Z,49.75
2023-04-06T13:36:09.913Z,49.02
2023-04-06T13:38:40.075Z,49.98
2023-04-06T13:41:07.587Z,48.68
2023-04-06T13:43:34.924Z,49.60
2023-04-06T13:46:02.715Z,50.52
2023-04-06T13:48:30.117Z,50.80
2023-04-06T13:50:57.786Z,48.77
2023-04-06T13:53:25.498Z,49.30
2023-04-06T13:55:56.768Z,46.24
2023-04-06T13:58:24.710Z,46.00
2023-04-06T14:00:52.563Z,46.31
2023-04-06T14:03:21.532Z,44.71
2023-04-06T14:05:49.003Z,45.23
2023-04-06T14:08:16.580Z,46.06
2023-04-06T14:10:44.337Z,43.56
2023-04-06T14:13:11.708Z,44.34
2023-04-06T14:15:39.235Z,45.28
2023-04-06T14:18:07.188Z,45.56
2023-04-06T14:20:34.723Z,45.24
2023-04-06T14:23:03.160Z,46.23
2023-04-06T14:25:35.955Z,44.63
2023-04-06T14:28:03.614Z,45.72
2023-04-06T14:30:32.266Z,43.01
2023-04-06T14:32:59.724Z,42.25
2023-04-06T14:35:29.430Z,43.79
2023-04-06T14:37:59.310Z,45.24
2023-04-06T14:40:26.756Z,46.46
2023-04-06T14:42:54.234Z,44.80
2023-04-06T14:45:22.902Z,44.40
2023-04-06T14:47:50.526Z,44.72
2023-04-06T14:50:17.925Z,43.03
2023-04-06T14:52:47.663Z,41.73
2023-04-06T14:55:15.298Z,42.71
2023-04-06T14:57:42.665Z,42.48
2023-04-06T15:00:11.346Z,41.37
2023-04-06T15:02:39.569Z,42.62
2023-04-06T15:05:07.503Z,43.79
2023-04-06T15:07:35.280Z,42.28
2023-04-06T15:10:02.904Z,43.82
2023-04-06T15:12:31.094Z,43.92
2023-04-06T15:14:58.843Z,45.23
2023-04-06T15:17:27.661Z,45.64
2023-04-06T15:19:55.565Z,45.87
2023-04-06T15:22:23.298Z,45.14
2023-04-06T15:24:50.746Z,46.96
2023-04-06T15:27:18.323Z,47.80
2023-04-06T15:29:45.953Z,49.45
2023-04-06T15:32:13.619Z,49.35
2023-04-06T15:34:41.142Z,50.16
2023-04-06T15:37:09.478Z,50.17
2023-04-06T15:39:38.025Z,50.16
2023-04-06T15:42:05.527Z,51.25
2023-04-06T15:44:33.338Z,50.71
2023-04-06T15:47:00.808Z,53.14
2023-04-06T15:49:28.281Z,52.89
2023-04-06T15:51:56.128Z,53.56
2023-04-06T15:54:23.452Z,54.86
2023-04-06T15:56:51.154Z,55.73
2023-04-06T15:59:20.053Z,54.55
2023-04-06T16:01:47.836Z,55.16
2023-04-06T16:04:15.783Z,55.24
2023-04-06T16:06:43.159Z,55.55
2023-04-06T16:09:10.482Z,55.80
2023-04-06T16:11:38.308Z,56.46
2023-04-06T16:14:05.775Z,57.12
2023-04-06T16:16:33.238Z,56.38
2023-04-06T16:19:01.148Z,57.02
2023-04-06T16:21:29.025Z,58.37
2023-04-06T16:23:59.205Z,56.66
2023-04-06T16:26:27.740Z,57.81
2023-04-06T16:28:55.315Z,58.03
2023-04-06T16:31:24.583Z,56.13
2023-04-06T16:33:54.531Z,56.95
2023-04-06T16:36:29.205Z,57.23
2023-04-06T16:38:58.043Z,57.43
2023-04-06T16:41:27.700Z,58.83
2023-04-06T16:43:57.919Z,59.16
2023-04-06T16:46:32.524Z,59.34
2023-04-06T16:49:00.684Z,60.37
2023-04-06T16:51:28.810Z,60.89
2023-04-06T16:53:56.198Z,60.72
2023-04-06T16:56:23.774Z,60.19
2023-04-06T16:58:51.844Z,61.04
2023-04-06T17:01:24.147Z,62.68
2023-04-06T17:03:54.118Z,63.66
2023-04-06T17:06:21.998Z,63.66
2023-04-06T17:08:49.993Z,62.75
2023-04-06T17:11:21.767Z,62.06
2023-04-06T17:13:51.002Z,61.41
2023-04-06T17:16:19.711Z,61.41
2023-04-06T17:18:47.134Z,61.99
2023-04-06T17:21:14.750Z,61.58
2023-04-06T17:23:42.767Z,61.79
2023-04-06T17:26:10.122Z,62.07
2023-04-06T17:28:37.474Z,60.21
2023-04-06T17:31:13.111Z,61.00
2023-04-06T17:33:41.665Z,60.29
2023-04-06T17:36:11.125Z,59.09
2023-04-06T17:38:43.557Z,58.46
2023-04-06T17:41:13.569Z,58.64
2023-04-06T17:43:41.065Z,58.70
2023-04-06T17:46:08.664Z,60.85
2023-04-06T17:48:36.565Z,59.03
2023-04-06T17:51:04.216Z,58.50
2023-04-06T17:53:34.568Z,58.83
2023-04-06T17:56:04.174Z,58.74
2023-04-06T17:58:31.770Z,59.51
2023-04-06T18:00:59.084Z,59.04
2023-04-06T18:03:27.447Z,57.86
2023-04-06T18:05:55.093Z,56.90
2023-04-06T18:08:22.678Z,56.79
2023-04-06T18:10:50.428Z,57.11
2023-04-06T18:13:17.826Z,58.22
2023-04-06T18:15:45.858Z,57.22
2023-04-06T18:18:13.652Z,56.09
2023-04-06T18:20:41.847Z,56.67
2023-04-06T18:23:09.236Z,57.48
2023-04-06T18:25:41.100Z,58.21
2023-04-06T18:28:09.596Z,57.78
2023-04-06T18:30:37.422Z,57.71
2023-04-06T18:33:06.734Z,58.25
2023-04-06T18:35:34.020Z,57.99
2023-04-06T18:38:01.688Z,57.23
2023-04-06T18:40:34.248Z,55.79
2023-04-06T18:43:03.297Z,58.36
2023-04-06T18:45:36.378Z,57.59
2023-04-06T18:48:04.578Z,56.85
2023-04-06T18:50:31.896Z,57.17
2023-04-06T18:52:59.320Z,57.94
2023-04-06T18:55:27.099Z,55.96
2023-04-06T18:57:54.554Z,55.73
2023-04-06T19:00:22.027Z,56.58
2023-04-06T19:02:49.983Z,55.32
2023-04-06T19:05:17.642Z,56.03
2023-04-06T19:07:52.524Z,57.10
2023-04-06T19:10:20.586Z,55.81
2023-04-06T19:12:48.985Z,54.54
2023-04-06T19:15:16.479Z,55.72
2023-04-06T19:17:44.244Z,55.51
2023-04-06T19:20:11.978Z,54.25
2023-04-06T19:22:39.362Z,53.87
2023-04-06T19:25:08.102Z,53.69
2023-04-06T19:27:35.557Z,54.11
2023-04-06T19:30:07.106Z,53.98
2023-04-06T19:32:34.903Z,54.01
2023-04-06T19:35:06.469Z,53.38
2023-04-06T19:37:34.651Z,52.96
2023-04-06T19:40:07.699Z,51.94
2023-04-06T19:42:35.216Z,54.15
2023-04-06T19:45:04.062Z,53.50
2023-04-06T19:47:31.681Z,53.96
2023-04-06T19:49:59.103Z,51.78
2023-04-06T19:52:27.454Z,52.92
2023-04-06T19:54:55.686Z,54.21
2023-04-06T19:57:23.221Z,51.77
2023-04-06T19:59:51.166Z,52.31
2023-04-06T20:02:19.000Z,52.65
2023-04-06T20:04:46.991Z,52.90
2023-04-06T20:07:14.410Z,52.45
2023-04-06T20:09:41.753Z,52.21
2023-04-06T20:12:09.493Z,54.53
2023-04-06T20:14:36.871Z,52.85
2023-04-06T20:17:04.601Z,54.27
2023-04-06T20:19:32.416Z,51.97
2023-04-06T20:22:03.304Z,52.67
2023-04-06T20:24:31.590Z,53.29
2023-04-06T20:26:59.677Z,54.41
2023-04-06T20:29:27.954Z,52.58
2023-04-06T20:31:55.820Z,52.36
2023-04-06T20:34:26.209Z,52.43
2023-04-06T20:36:53.939Z,52.08
2023-04-06T20:39:21.928Z,53.49
2023-04-06T20:41:50.968Z,51.65
2023-04-06T20:44:19.164Z,52.03
2023-04-06T20:46:48.575Z,50.36
2023-04-06T20:49:17.166Z,49.98
2023-04-06T20:51:45.841Z,50.65
2023-04-06T20:54:13.224Z,49.07
2023-04-06T20:56:41.044Z,48.67
2023-04-06T20:59:08.377Z,50.63
2023-04-06T21:01:35.833Z,49.19
2023-04-06T21:04:04.343Z,50.40
2023-04-06T21:06:32.629Z,50.09
2023-04-06T21:09:01.511Z,49.83
2023-04-06T21:11:29.817Z,48.37
2023-04-06T21:13:57.205Z,48.56
2023-04-06T21:16:24.576Z,49.42
2023-04-06T21:18:52.304Z,49.83
2023-04-06T21:21:20.087Z,49.61
2023-04-06T21:23:47.431Z,51.00
2023-04-06T21:26:15.085Z,51.76
2023-04-06T21:28:42.533Z,53.05
2023-04-06T21:31:10.009Z,51.93
2023-04-06T21:33:37.756Z,51.64
2023-04-06T21:36:06.889Z,52.75
2023-04-06T21:38:37.771Z,53.42
2023-04-06T21:41:07.377Z,54.17
2023-04-06T21:43:34.708Z,53.26
2023-04-06T21:46:02.328Z,52.84
2023-04-06T21:48:30.308Z,51.46
2023-04-06T21:50:57.561Z,53.50
2023-04-06T21:53:24.858Z,51.28
2023-04-06T21:55:52.810Z,51.44
2023-04-06T21:58:20.171Z,52.48
2023-04-06T22:00:47.557Z,51.56
2023-04-06T22:17:59.383Z,52.30
2023-04-06T22:20:28.032Z,52.30
2023-04-06T22:22:55.526Z,52.43
2023-04-06T22:25:23.359Z,52.87
2023-04-06T22:27:50.986Z,53.70
2023-04-06T22:30:18.326Z,53.10
2023-04-06T22:32:45.823Z,52.05
2023-04-06T22:35:13.635Z,53.13
2023-04-06T22:37:44.428Z,52.95
2023-04-06T22:40:12.233Z,52.17
2023-04-06T22:42:40.059Z,53.54
2023-04-06T22:45:07.686Z,52.12
2023-04-06T22:47:35.055Z,51.39
2023-04-06T22:50:02.913Z,51.67
2023-04-06T22:52:30.207Z,54.08
2023-04-06T22:54:57.516Z,53.43
2023-04-06T22:57:25.475Z,51.79
2023-04-06T22:59:52.943Z,53.01
2023-04-06T23:02:20.608Z,53.44
2023-04-06T23:04:48.382Z,51.66
2023-04-06T23:07:15.655Z,52.77
2023-04-06T23:09:44.380Z,52.36
2023-04-06T23:12:12.268Z,53.04
2023-04-06T23:14:39.520Z,51.74
2023-04-06T23:17:07.027Z,52.10
2023-04-06T23:19:34.839Z,52.46
2023-04-06T23:22:02.529Z,52.59
2023-04-06T23:24:29.804Z,52.42
2023-04-06T23:26:57.732Z,52.19
2023-04-06T23:29:25.209Z,51.22
2023-04-06T23:31:52.584Z,51.48
2023-04-06T23:34:20.277Z,51.35
2023-04-06T23:36:47.653Z,52.00
2023-04-06T23:39:14.994Z,53.13
2023-04-06T23:41:43.291Z,53.48
2023-04-06T23:44:10.762Z,53.07
2023-04-06T23:46:38.171Z,54.29
2023-04-06T23:49:05.886Z,53.50
2023-04-06T23:51:33.190Z,53.65
2023-04-06T23:54:00.514Z,54.47
2023-04-06T23:56:28.164Z,52.25
2023-04-06T23:58:55.566Z,53.60
